KAKR/AKR METAR and TAF weather

Enter ICAO airport designator
Station Type Date Time Source
KAKR METAR 2018/12/18 10:54 UTC NOAA

KAKR 181054Z AUTO 01004KT 10SM OVC026 01/M06 A3018 RMK AO2 SLP227 T00061056


Station Type Date Time Source
KAKR Decoded METAR 2018/12/18 10:54 UTC NOAA

AKRON FULTON INTERNATIONAL, OH, United States (KAKR) 41-02N 081-28W 363M
Dec 18, 2018 - 05:54 AM EST / 2018.12.18 1054 UTC
Wind: from the N (010 degrees) at 5 MPH (4 KT):0
Visibility: 10 mile(s):0
Sky conditions: overcast
Temperature: 33.1 F (0.6 C)
Windchill: 28 F (-2 C):1
Dew Point: 21.9 F (-5.6 C)
Relative Humidity: 63%
Pressure (altimeter): 30.18 in. Hg (1022 hPa)
ob: KAKR 181054Z AUTO 01004KT 10SM OVC026 01/M06 A3018 RMK AO2 SLP227 T00061056
cycle: 11

Station Type Date Time Source
KAKR TAF UTC NOAA

Error!


Example: see airport list